sensor_id;sensor_type;location;lat;lon;timestamp;temperature;humidity
80577;DHT22;69937;52.420;10.538;2023-05-07T00:04:31;9.00;73.10
80577;DHT22;69937;52.420;10.538;2023-05-07T00:09:36;9.00;73.00
80577;DHT22;69937;52.420;10.538;2023-05-07T00:14:37;9.00;73.00
80577;DHT22;69937;52.420;10.538;2023-05-07T00:19:38;9.00;73.20
80577;DHT22;69937;52.420;10.538;2023-05-07T00:24:38;9.00;73.00
80577;DHT22;69937;52.420;10.538;2023-05-07T00:29:39;9.00;73.00
80577;DHT22;69937;52.420;10.538;2023-05-07T00:34:40;9.00;73.40
80577;DHT22;69937;52.420;10.538;2023-05-07T00:39:41;9.00;73.80
80577;DHT22;69937;52.420;10.538;2023-05-07T00:44:41;9.00;74.00
80577;DHT22;69937;52.420;10.538;2023-05-07T00:49:43;9.00;73.80
80577;DHT22;69937;52.420;10.538;2023-05-07T00:54:44;9.00;73.60
80577;DHT22;69937;52.420;10.538;2023-05-07T00:59:45;8.90;73.60
80577;DHT22;69937;52.420;10.538;2023-05-07T01:04:45;8.90;73.70
80577;DHT22;69937;52.420;10.538;2023-05-07T01:09:46;8.90;73.60
80577;DHT22;69937;52.420;10.538;2023-05-07T01:14:47;8.90;73.60
80577;DHT22;69937;52.420;10.538;2023-05-07T01:19:49;8.80;73.50
80577;DHT22;69937;52.420;10.538;2023-05-07T01:24:50;8.80;73.60
80577;DHT22;69937;52.420;10.538;2023-05-07T01:29:51;8.80;73.50
80577;DHT22;69937;52.420;10.538;2023-05-07T01:34:52;8.80;73.60
80577;DHT22;69937;52.420;10.538;2023-05-07T01:39:54;8.80;73.40
80577;DHT22;69937;52.420;10.538;2023-05-07T01:44:56;8.70;73.80
80577;DHT22;69937;52.420;10.538;2023-05-07T01:49:57;8.60;73.80
80577;DHT22;69937;52.420;10.538;2023-05-07T01:54:57;8.60;74.00
80577;DHT22;69937;52.420;10.538;2023-05-07T01:59:58;8.60;74.10
80577;DHT22;69937;52.420;10.538;2023-05-07T02:04:59;8.60;74.00
80577;DHT22;69937;52.420;10.538;2023-05-07T02:10:01;8.60;74.30
80577;DHT22;69937;52.420;10.538;2023-05-07T02:15:02;8.60;74.30
80577;DHT22;69937;52.420;10.538;2023-05-07T02:20:02;8.60;74.60
80577;DHT22;69937;52.420;10.538;2023-05-07T02:25:04;8.60;74.30
80577;DHT22;69937;52.420;10.538;2023-05-07T02:30:05;8.60;73.90
80577;DHT22;69937;52.420;10.538;2023-05-07T02:35:06;8.60;74.20
80577;DHT22;69937;52.420;10.538;2023-05-07T02:40:07;8.60;74.50
80577;DHT22;69937;52.420;10.538;2023-05-07T02:45:08;8.60;74.20
80577;DHT22;69937;52.420;10.538;2023-05-07T02:50:09;8.50;74.10
80577;DHT22;69937;52.420;10.538;2023-05-07T02:55:10;8.50;74.10
80577;DHT22;69937;52.420;10.538;2023-05-07T03:00:15;8.50;74.00
80577;DHT22;69937;52.420;10.538;2023-05-07T03:05:16;8.50;74.00
80577;DHT22;69937;52.420;10.538;2023-05-07T03:10:17;8.50;73.80
80577;DHT22;69937;52.420;10.538;2023-05-07T03:21:16;8.50;73.80
80577;DHT22;69937;52.420;10.538;2023-05-07T03:26:23;8.50;74.10
80577;DHT22;69937;52.420;10.538;2023-05-07T03:31:25;8.40;74.10
80577;DHT22;69937;52.420;10.538;2023-05-07T03:36:28;8.40;73.30
80577;DHT22;69937;52.420;10.538;2023-05-07T03:41:29;8.30;73.00
80577;DHT22;69937;52.420;10.538;2023-05-07T03:46:30;8.30;73.00
80577;DHT22;69937;52.420;10.538;2023-05-07T03:51:33;8.30;72.90
80577;DHT22;69937;52.420;10.538;2023-05-07T03:56:33;8.30;72.90
80577;DHT22;69937;52.420;10.538;2023-05-07T04:01:34;8.30;73.10
80577;DHT22;69937;52.420;10.538;2023-05-07T04:06:34;8.40;73.20
80577;DHT22;69937;52.420;10.538;2023-05-07T04:11:35;8.40;73.30
80577;DHT22;69937;52.420;10.538;2023-05-07T04:16:36;8.40;73.50
80577;DHT22;69937;52.420;10.538;2023-05-07T04:21:36;8.30;73.70
80577;DHT22;69937;52.420;10.538;2023-05-07T04:26:37;8.30;72.80
80577;DHT22;69937;52.420;10.538;2023-05-07T04:31:37;8.40;72.40
80577;DHT22;69937;52.420;10.538;2023-05-07T04:36:38;8.40;72.20
80577;DHT22;69937;52.420;10.538;2023-05-07T04:41:39;8.40;72.20
80577;DHT22;69937;52.420;10.538;2023-05-07T04:46:39;8.40;72.00
80577;DHT22;69937;52.420;10.538;2023-05-07T04:51:40;8.50;71.90
80577;DHT22;69937;52.420;10.538;2023-05-07T04:56:43;8.50;71.70
80577;DHT22;69937;52.420;10.538;2023-05-07T05:01:43;8.50;71.50
80577;DHT22;69937;52.420;10.538;2023-05-07T05:06:44;8.50;71.90
80577;DHT22;69937;52.420;10.538;2023-05-07T05:11:44;8.50;71.60
80577;DHT22;69937;52.420;10.538;2023-05-07T05:16:45;8.60;71.40
80577;DHT22;69937;52.420;10.538;2023-05-07T05:21:45;8.60;71.40
80577;DHT22;69937;52.420;10.538;2023-05-07T05:26:46;8.60;71.60
80577;DHT22;69937;52.420;10.538;2023-05-07T05:31:46;8.60;71.70
80577;DHT22;69937;52.420;10.538;2023-05-07T05:36:47;8.60;71.40
80577;DHT22;69937;52.420;10.538;2023-05-07T05:41:48;8.80;71.20
80577;DHT22;69937;52.420;10.538;2023-05-07T05:46:48;8.80;70.90
80577;DHT22;69937;52.420;10.538;2023-05-07T05:51:50;8.80;70.90
80577;DHT22;69937;52.420;10.538;2023-05-07T05:56:50;8.70;71.00
80577;DHT22;69937;52.420;10.538;2023-05-07T06:01:51;8.70;71.40
80577;DHT22;69937;52.420;10.538;2023-05-07T06:06:51;8.70;71.50
80577;DHT22;69937;52.420;10.538;2023-05-07T06:11:52;8.60;71.60
80577;DHT22;69937;52.420;10.538;2023-05-07T06:16:52;8.70;71.60
80577;DHT22;69937;52.420;10.538;2023-05-07T06:21:53;8.70;71.60
80577;DHT22;69937;52.420;10.538;2023-05-07T06:26:54;8.70;71.60
80577;DHT22;69937;52.420;10.538;2023-05-07T06:31:54;8.80;72.00
80577;DHT22;69937;52.420;10.538;2023-05-07T06:36:55;8.90;71.40
80577;DHT22;69937;52.420;10.538;2023-05-07T06:41:56;8.90;71.90
80577;DHT22;69937;52.420;10.538;2023-05-07T06:46:57;8.90;71.90
80577;DHT22;69937;52.420;10.538;2023-05-07T06:51:57;8.80;71.70
80577;DHT22;69937;52.420;10.538;2023-05-07T06:56:58;8.90;71.80
80577;DHT22;69937;52.420;10.538;2023-05-07T07:01:59;9.00;71.20
80577;DHT22;69937;52.420;10.538;2023-05-07T07:06:59;9.00;71.00
80577;DHT22;69937;52.420;10.538;2023-05-07T07:12:00;9.10;71.60
80577;DHT22;69937;52.420;10.538;2023-05-07T07:17:00;9.20;70.70
80577;DHT22;69937;52.420;10.538;2023-05-07T07:22:01;9.20;70.50
80577;DHT22;69937;52.420;10.538;2023-05-07T07:27:01;9.20;70.30
80577;DHT22;69937;52.420;10.538;2023-05-07T07:32:02;9.20;70.20
80577;DHT22;69937;52.420;10.538;2023-05-07T07:37:02;9.20;70.40
80577;DHT22;69937;52.420;10.538;2023-05-07T07:42:06;9.20;70.10
80577;DHT22;69937;52.420;10.538;2023-05-07T07:47:06;9.30;69.90
80577;DHT22;69937;52.420;10.538;2023-05-07T07:52:07;9.30;70.20
80577;DHT22;69937;52.420;10.538;2023-05-07T07:57:07;9.50;70.50
80577;DHT22;69937;52.420;10.538;2023-05-07T08:02:08;9.80;69.00
80577;DHT22;69937;52.420;10.538;2023-05-07T08:07:09;9.70;68.80
80577;DHT22;69937;52.420;10.538;2023-05-07T08:12:10;9.60;69.10
80577;DHT22;69937;52.420;10.538;2023-05-07T08:17:11;9.70;69.60
80577;DHT22;69937;52.420;10.538;2023-05-07T08:22:11;9.70;69.00
80577;DHT22;69937;52.420;10.538;2023-05-07T08:27:12;9.80;68.40
80577;DHT22;69937;52.420;10.538;2023-05-07T08:32:12;9.80;68.40
80577;DHT22;69937;52.420;10.538;2023-05-07T08:37:13;9.80;68.90
80577;DHT22;69937;52.420;10.538;2023-05-07T08:42:16;9.80;68.30
80577;DHT22;69937;52.420;10.538;2023-05-07T08:47:17;10.00;68.00
80577;DHT22;69937;52.420;10.538;2023-05-07T08:52:19;10.10;68.40
80577;DHT22;69937;52.420;10.538;2023-05-07T08:57:20;10.20;67.90
80577;DHT22;69937;52.420;10.538;2023-05-07T09:02:21;10.20;68.00
80577;DHT22;69937;52.420;10.538;2023-05-07T09:07:22;10.10;68.00
80577;DHT22;69937;52.420;10.538;2023-05-07T09:12:23;10.10;67.80
80577;DHT22;69937;52.420;10.538;2023-05-07T09:17:23;10.20;66.90
80577;DHT22;69937;52.420;10.538;2023-05-07T09:22:24;10.30;67.50
80577;DHT22;69937;52.420;10.538;2023-05-07T09:27:25;10.20;67.70
80577;DHT22;69937;52.420;10.538;2023-05-07T09:32:26;10.40;67.50
80577;DHT22;69937;52.420;10.538;2023-05-07T09:37:27;10.50;67.40
80577;DHT22;69937;52.420;10.538;2023-05-07T09:42:28;10.60;66.70
80577;DHT22;69937;52.420;10.538;2023-05-07T09:47:32;10.80;67.10
80577;DHT22;69937;52.420;10.538;2023-05-07T09:52:34;10.70;66.30
80577;DHT22;69937;52.420;10.538;2023-05-07T09:57:36;10.70;67.00
80577;DHT22;69937;52.420;10.538;2023-05-07T10:02:38;10.80;66.80
80577;DHT22;69937;52.420;10.538;2023-05-07T10:07:41;10.90;66.50
80577;DHT22;69937;52.420;10.538;2023-05-07T10:12:42;10.70;66.00
80577;DHT22;69937;52.420;10.538;2023-05-07T10:17:42;10.80;66.50
80577;DHT22;69937;52.420;10.538;2023-05-07T10:22:45;10.90;67.70
80577;DHT22;69937;52.420;10.538;2023-05-07T10:27:48;10.90;66.50
80577;DHT22;69937;52.420;10.538;2023-05-07T10:32:53;10.90;65.70
80577;DHT22;69937;52.420;10.538;2023-05-07T10:37:54;11.10;65.10
80577;DHT22;69937;52.420;10.538;2023-05-07T10:42:59;11.30;65.30
80577;DHT22;69937;52.420;10.538;2023-05-07T10:58:25;11.50;64.70
80577;DHT22;69937;52.420;10.538;2023-05-07T11:03:29;11.60;64.70
80577;DHT22;69937;52.420;10.538;2023-05-07T11:13:52;11.40;64.90
80577;DHT22;69937;52.420;10.538;2023-05-07T11:18:54;11.40;64.70
80577;DHT22;69937;52.420;10.538;2023-05-07T11:23:55;11.40;64.70
80577;DHT22;69937;52.420;10.538;2023-05-07T11:28:57;11.50;64.50
80577;DHT22;69937;52.420;10.538;2023-05-07T11:34:00;11.60;64.30
80577;DHT22;69937;52.420;10.538;2023-05-07T11:39:01;11.70;65.40
80577;DHT22;69937;52.420;10.538;2023-05-07T11:44:01;11.80;64.90
80577;DHT22;69937;52.420;10.538;2023-05-07T11:49:02;11.80;64.40
80577;DHT22;69937;52.420;10.538;2023-05-07T11:54:06;11.70;64.80
80577;DHT22;69937;52.420;10.538;2023-05-07T11:59:09;11.70;64.40
80577;DHT22;69937;52.420;10.538;2023-05-07T12:04:09;11.70;64.80
80577;DHT22;69937;52.420;10.538;2023-05-07T12:09:10;11.80;64.60
80577;DHT22;69937;52.420;10.538;2023-05-07T12:14:11;11.90;65.30
80577;DHT22;69937;52.420;10.538;2023-05-07T12:19:13;12.00;64.10
80577;DHT22;69937;52.420;10.538;2023-05-07T12:24:14;12.20;65.30
80577;DHT22;69937;52.420;10.538;2023-05-07T12:29:15;12.50;64.60
80577;DHT22;69937;52.420;10.538;2023-05-07T12:34:16;13.10;61.90
80577;DHT22;69937;52.420;10.538;2023-05-07T12:39:16;13.10;61.50
80577;DHT22;69937;52.420;10.538;2023-05-07T12:44:23;12.80;62.50
80577;DHT22;69937;52.420;10.538;2023-05-07T12:49:24;13.30;61.30
80577;DHT22;69937;52.420;10.538;2023-05-07T12:54:38;13.80;60.30
80577;DHT22;69937;52.420;10.538;2023-05-07T12:59:41;13.80;60.60
80577;DHT22;69937;52.420;10.538;2023-05-07T13:04:42;13.70;59.90
80577;DHT22;69937;52.420;10.538;2023-05-07T13:09:42;13.60;60.00
80577;DHT22;69937;52.420;10.538;2023-05-07T13:14:43;13.50;60.30
80577;DHT22;69937;52.420;10.538;2023-05-07T13:19:43;13.40;60.80
80577;DHT22;69937;52.420;10.538;2023-05-07T13:24:44;13.10;60.70
80577;DHT22;69937;52.420;10.538;2023-05-07T13:29:44;13.00;62.00
80577;DHT22;69937;52.420;10.538;2023-05-07T13:34:45;13.00;61.10
80577;DHT22;69937;52.420;10.538;2023-05-07T13:39:45;13.10;61.90
80577;DHT22;69937;52.420;10.538;2023-05-07T13:44:46;13.10;61.50
80577;DHT22;69937;52.420;10.538;2023-05-07T13:49:47;13.40;61.70
80577;DHT22;69937;52.420;10.538;2023-05-07T13:54:49;13.40;61.50
80577;DHT22;69937;52.420;10.538;2023-05-07T13:59:52;13.30;61.00
80577;DHT22;69937;52.420;10.538;2023-05-07T14:04:53;13.20;60.90
80577;DHT22;69937;52.420;10.538;2023-05-07T14:09:54;13.50;60.00
80577;DHT22;69937;52.420;10.538;2023-05-07T14:14:54;14.30;58.70
80577;DHT22;69937;52.420;10.538;2023-05-07T14:19:55;15.00;58.60
80577;DHT22;69937;52.420;10.538;2023-05-07T14:24:56;15.50;57.20
80577;DHT22;69937;52.420;10.538;2023-05-07T14:29:56;15.80;56.50
80577;DHT22;69937;52.420;10.538;2023-05-07T14:34:57;15.80;55.70
80577;DHT22;69937;52.420;10.538;2023-05-07T14:39:57;16.20;56.70
80577;DHT22;69937;52.420;10.538;2023-05-07T14:44:58;15.70;55.70
80577;DHT22;69937;52.420;10.538;2023-05-07T14:49:58;15.20;56.50
80577;DHT22;69937;52.420;10.538;2023-05-07T14:55:01;15.10;57.90
80577;DHT22;69937;52.420;10.538;2023-05-07T15:00:03;14.90;57.40
80577;DHT22;69937;52.420;10.538;2023-05-07T15:05:05;14.80;57.40
80577;DHT22;69937;52.420;10.538;2023-05-07T15:10:06;14.60;58.20
80577;DHT22;69937;52.420;10.538;2023-05-07T15:15:07;14.70;57.50
80577;DHT22;69937;52.420;10.538;2023-05-07T15:20:08;15.30;57.10
80577;DHT22;69937;52.420;10.538;2023-05-07T15:25:08;15.50;56.30
80577;DHT22;69937;52.420;10.538;2023-05-07T15:30:10;15.60;55.80
80577;DHT22;69937;52.420;10.538;2023-05-07T15:35:11;15.60;55.30
80577;DHT22;69937;52.420;10.538;2023-05-07T15:40:12;15.60;55.50
80577;DHT22;69937;52.420;10.538;2023-05-07T15:45:12;15.50;56.20
80577;DHT22;69937;52.420;10.538;2023-05-07T15:50:13;15.20;55.80
80577;DHT22;69937;52.420;10.538;2023-05-07T15:55:13;14.90;57.20
80577;DHT22;69937;52.420;10.538;2023-05-07T16:00:14;14.70;57.80
80577;DHT22;69937;52.420;10.538;2023-05-07T16:05:16;14.50;57.80
80577;DHT22;69937;52.420;10.538;2023-05-07T16:10:17;14.40;58.80
80577;DHT22;69937;52.420;10.538;2023-05-07T16:15:17;14.40;58.30
80577;DHT22;69937;52.420;10.538;2023-05-07T16:20:18;14.10;58.10
80577;DHT22;69937;52.420;10.538;2023-05-07T16:25:21;13.80;58.60
80577;DHT22;69937;52.420;10.538;2023-05-07T16:30:21;13.50;59.00
80577;DHT22;69937;52.420;10.538;2023-05-07T16:35:22;13.50;59.70
80577;DHT22;69937;52.420;10.538;2023-05-07T16:40:22;13.50;59.70
80577;DHT22;69937;52.420;10.538;2023-05-07T16:45:23;13.30;59.90
80577;DHT22;69937;52.420;10.538;2023-05-07T16:50:24;13.10;60.30
80577;DHT22;69937;52.420;10.538;2023-05-07T16:55:24;13.10;60.10
80577;DHT22;69937;52.420;10.538;2023-05-07T17:00:25;13.00;61.10
80577;DHT22;69937;52.420;10.538;2023-05-07T17:05:26;12.90;61.10
80577;DHT22;69937;52.420;10.538;2023-05-07T17:10:27;13.00;61.10
80577;DHT22;69937;52.420;10.538;2023-05-07T17:15:27;13.00;61.10
80577;DHT22;69937;52.420;10.538;2023-05-07T17:20:28;12.90;61.00
80577;DHT22;69937;52.420;10.538;2023-05-07T17:25:31;12.70;61.40
80577;DHT22;69937;52.420;10.538;2023-05-07T17:30:31;12.70;61.30
80577;DHT22;69937;52.420;10.538;2023-05-07T17:35:32;12.70;61.30
80577;DHT22;69937;52.420;10.538;2023-05-07T17:40:33;12.50;61.70
80577;DHT22;69937;52.420;10.538;2023-05-07T17:45:34;12.50;61.70
80577;DHT22;69937;52.420;10.538;2023-05-07T17:50:35;12.50;61.90
80577;DHT22;69937;52.420;10.538;2023-05-07T17:55:40;12.40;62.50
80577;DHT22;69937;52.420;10.538;2023-05-07T18:00:41;12.30;62.90
80577;DHT22;69937;52.420;10.538;2023-05-07T18:05:42;12.20;62.70
80577;DHT22;69937;52.420;10.538;2023-05-07T18:10:42;12.20;63.20
80577;DHT22;69937;52.420;10.538;2023-05-07T18:15:44;12.10;63.60
80577;DHT22;69937;52.420;10.538;2023-05-07T18:20:49;12.10;63.40
80577;DHT22;69937;52.420;10.538;2023-05-07T18:25:50;12.00;63.90
80577;DHT22;69937;52.420;10.538;2023-05-07T18:30:51;11.90;64.40
80577;DHT22;69937;52.420;10.538;2023-05-07T18:35:51;11.70;64.50
80577;DHT22;69937;52.420;10.538;2023-05-07T18:40:52;11.50;65.00
80577;DHT22;69937;52.420;10.538;2023-05-07T18:45:52;11.50;65.40
80577;DHT22;69937;52.420;10.538;2023-05-07T18:50:53;11.30;65.70
80577;DHT22;69937;52.420;10.538;2023-05-07T18:55:53;11.10;66.10
80577;DHT22;69937;52.420;10.538;2023-05-07T19:00:54;11.10;66.60
80577;DHT22;69937;52.420;10.538;2023-05-07T19:05:55;10.90;67.10
80577;DHT22;69937;52.420;10.538;2023-05-07T19:10:56;10.70;67.50
80577;DHT22;69937;52.420;10.538;2023-05-07T19:15:56;10.60;67.60
80577;DHT22;69937;52.420;10.538;2023-05-07T19:20:57;10.60;67.60
80577;DHT22;69937;52.420;10.538;2023-05-07T19:25:57;10.60;67.80
80577;DHT22;69937;52.420;10.538;2023-05-07T19:30:58;10.30;68.00
80577;DHT22;69937;52.420;10.538;2023-05-07T19:35:59;10.10;68.20
80577;DHT22;69937;52.420;10.538;2023-05-07T19:40:59;10.00;68.70
80577;DHT22;69937;52.420;10.538;2023-05-07T19:46:00;9.90;69.10
80577;DHT22;69937;52.420;10.538;2023-05-07T19:51:00;9.80;69.10
80577;DHT22;69937;52.420;10.538;2023-05-07T19:56:02;9.70;69.20
80577;DHT22;69937;52.420;10.538;2023-05-07T20:01:04;9.60;69.30
80577;DHT22;69937;52.420;10.538;2023-05-07T20:06:05;9.60;69.50
80577;DHT22;69937;52.420;10.538;2023-05-07T20:11:05;9.60;69.70
80577;DHT22;69937;52.420;10.538;2023-05-07T20:16:06;9.50;69.70
80577;DHT22;69937;52.420;10.538;2023-05-07T20:21:07;9.50;69.40
80577;DHT22;69937;52.420;10.538;2023-05-07T20:26:07;9.40;69.80
80577;DHT22;69937;52.420;10.538;2023-05-07T20:31:08;9.30;70.00
80577;DHT22;69937;52.420;10.538;2023-05-07T20:36:09;9.20;70.10
80577;DHT22;69937;52.420;10.538;2023-05-07T20:41:10;9.20;70.20
80577;DHT22;69937;52.420;10.538;2023-05-07T20:46:13;9.10;69.90
80577;DHT22;69937;52.420;10.538;2023-05-07T20:51:14;9.10;70.10
80577;DHT22;69937;52.420;10.538;2023-05-07T20:56:15;9.00;70.20
80577;DHT22;69937;52.420;10.538;2023-05-07T21:01:16;8.80;70.40
80577;DHT22;69937;52.420;10.538;2023-05-07T21:06:18;8.70;70.60
80577;DHT22;69937;52.420;10.538;2023-05-07T21:11:32;8.60;70.50
80577;DHT22;69937;52.420;10.538;2023-05-07T21:16:32;8.50;70.60
80577;DHT22;69937;52.420;10.538;2023-05-07T21:21:34;8.50;70.60
80577;DHT22;69937;52.420;10.538;2023-05-07T21:26:37;8.50;70.50
80577;DHT22;69937;52.420;10.538;2023-05-07T21:31:38;8.40;70.40
80577;DHT22;69937;52.420;10.538;2023-05-07T21:36:38;8.40;70.50
80577;DHT22;69937;52.420;10.538;2023-05-07T21:41:39;8.40;70.50
80577;DHT22;69937;52.420;10.538;2023-05-07T21:46:43;8.40;70.70
80577;DHT22;69937;52.420;10.538;2023-05-07T21:51:44;8.30;70.60
80577;DHT22;69937;52.420;10.538;2023-05-07T21:56:46;8.20;70.70
80577;DHT22;69937;52.420;10.538;2023-05-07T22:01:51;8.20;70.70
80577;DHT22;69937;52.420;10.538;2023-05-07T22:06:53;8.10;70.80
80577;DHT22;69937;52.420;10.538;2023-05-07T22:12:22;8.00;71.00
80577;DHT22;69937;52.420;10.538;2023-05-07T22:18:40;8.00;71.00
80577;DHT22;69937;52.420;10.538;2023-05-07T22:24:00;8.00;70.70
80577;DHT22;69937;52.420;10.538;2023-05-07T22:29:48;8.00;70.70
80577;DHT22;69937;52.420;10.538;2023-05-07T22:53:11;8.00;70.40
80577;DHT22;69937;52.420;10.538;2023-05-07T22:59:20;8.00;70.40
80577;DHT22;69937;52.420;10.538;2023-05-07T23:04:22;8.00;70.40
80577;DHT22;69937;52.420;10.538;2023-05-07T23:09:27;8.10;70.50
80577;DHT22;69937;52.420;10.538;2023-05-07T23:14:37;8.00;70.30
80577;DHT22;69937;52.420;10.538;2023-05-07T23:19:47;8.00;70.40
80577;DHT22;69937;52.420;10.538;2023-05-07T23:25:02;8.00;70.30
80577;DHT22;69937;52.420;10.538;2023-05-07T23:31:18;8.00;70.60
80577;DHT22;69937;52.420;10.538;2023-05-07T23:43:06;7.80;70.60
80577;DHT22;69937;52.420;10.538;2023-05-07T23:48:10;7.80;70.30
80577;DHT22;69937;52.420;10.538;2023-05-07T23:53:43;7.80;70.20
80577;DHT22;69937;52.420;10.538;2023-05-07T23:59:08;7.80;70.10
